Time;durP1;ratioP1;P1;durP2;ratioP2;P2;SDS_P1;SDS_P2;PMS_P1;PMS_P2;Temp;Humidity;BMP_temperature;BMP_pressure;BME280_temperature;BME280_humidity;BME280_pressure;Samples;Min_cycle;Max_cycle;Signal;HPM_P1;HPM_P2
2021/08/12 00:00:45;;;;;;;18.70;16.17;;;;;;;19.11;85.46;99380.47;5032978;28;20036;-62
2021/08/12 00:03:11;;;;;;;19.98;16.92;;;;;;;19.17;85.12;99383.25;5033115;28;20088;-58
2021/08/12 00:05:36;;;;;;;20.63;16.33;;;;;;;19.22;84.99;99388.09;5032703;28;20064;-60
2021/08/12 00:08:02;;;;;;;20.77;16.48;;;;;;;19.25;85.09;99376.03;5033017;28;20389;-60
2021/08/12 00:10:28;;;;;;;18.90;16.45;;;;;;;19.11;85.41;99373.16;5032950;28;20065;-59
2021/08/12 00:12:53;;;;;;;19.83;16.38;;;;;;;19.11;85.46;99361.47;5032400;28;20026;-57
2021/08/12 00:15:19;;;;;;;21.95;16.75;;;;;;;19.07;85.54;99372.72;5032798;28;20069;-61
2021/08/12 00:17:44;;;;;;;20.98;17.35;;;;;;;19.11;85.39;99366.91;5032912;28;20033;-60
2021/08/12 00:20:10;;;;;;;24.08;15.93;;;;;;;19.12;85.53;99372.13;5032850;28;20040;-65
2021/08/12 00:22:37;;;;;;;21.52;16.67;;;;;;;19.09;85.10;99358.94;5032802;28;20030;-59
2021/08/12 00:25:03;;;;;;;22.73;18.40;;;;;;;19.18;85.00;99368.66;5032824;28;20033;-58
2021/08/12 00:27:28;;;;;;;24.83;17.83;;;;;;;19.15;85.30;99354.63;5032036;28;20133;-59
2021/08/12 00:29:54;;;;;;;22.42;18.27;;;;;;;19.18;85.05;99354.22;5032136;28;20037;-60
2021/08/12 00:32:19;;;;;;;22.40;18.48;;;;;;;19.00;84.82;99339.22;5032549;28;20386;-60
2021/08/12 00:34:45;;;;;;;21.33;17.95;;;;;;;19.18;85.13;99352.38;5032331;28;20048;-61
2021/08/12 00:37:10;;;;;;;23.35;19.90;;;;;;;19.22;84.94;99356.38;5032177;28;20055;-66
2021/08/12 00:39:36;;;;;;;24.17;18.30;;;;;;;19.24;85.36;99345.31;5032419;28;20061;-61
2021/08/12 00:42:01;;;;;;;24.40;19.00;;;;;;;19.24;85.05;99345.31;5035183;28;20029;-60
2021/08/12 00:44:27;;;;;;;28.13;20.08;;;;;;;19.18;85.05;99341.53;5050801;28;20029;-59
2021/08/12 00:46:52;;;;;;;23.25;19.15;;;;;;;19.17;85.28;99337.13;5051765;28;20071;-61
2021/08/12 00:49:18;;;;;;;24.48;20.17;;;;;;;19.17;85.27;99331.69;5051718;28;20040;-61
2021/08/12 00:51:44;;;;;;;25.42;20.15;;;;;;;19.21;85.16;99318.56;5052066;28;20373;-59
2021/08/12 00:54:10;;;;;;;27.83;21.05;;;;;;;19.29;85.08;99326.59;5052099;28;20037;-60
2021/08/12 00:56:36;;;;;;;23.55;19.70;;;;;;;19.33;84.82;99319.75;5051703;28;20496;-59
2021/08/12 00:59:02;;;;;;;22.67;19.63;;;;;;;19.45;84.75;99319.22;5051599;28;20029;-57
2021/08/12 01:01:27;;;;;;;25.08;20.33;;;;;;;19.41;84.56;99309.78;5052410;28;20032;-59
2021/08/12 01:03:58;;;;;;;25.50;21.52;;;;;;;19.39;85.04;99312.69;5051985;28;20025;-60
2021/08/12 01:06:29;;;;;;;24.88;21.27;;;;;;;19.40;85.56;99308.09;5051548;28;20029;-62
2021/08/12 01:09:14;;;;;;;24.00;20.05;;;;;;;19.41;85.52;99291.63;5051512;28;20031;-60
2021/08/12 01:11:43;;;;;;;26.05;19.92;;;;;;;19.41;85.04;99288.06;5052066;28;20465;-58
2021/08/12 01:14:22;;;;;;;20.40;18.10;;;;;;;19.38;84.71;99291.19;5052056;28;20128;-61
2021/08/12 01:16:56;;;;;;;23.52;18.38;;;;;;;19.45;85.03;99302.94;5051344;28;20101;-59
2021/08/12 01:19:29;;;;;;;21.45;18.10;;;;;;;19.39;84.75;99314.56;5051390;28;20449;-59
2021/08/12 01:22:01;;;;;;;21.38;17.98;;;;;;;19.49;85.29;99313.22;5051915;28;20033;-59
2021/08/12 01:24:30;;;;;;;21.08;17.23;;;;;;;19.39;85.01;99317.28;5051374;28;20036;-60
2021/08/12 01:26:59;;;;;;;20.88;17.88;;;;;;;19.40;84.95;99324.41;5050876;28;20036;-60
2021/08/12 01:29:42;;;;;;;21.75;17.08;;;;;;;19.52;85.63;99317.41;5051296;28;20039;-58
2021/08/12 01:32:12;;;;;;;19.23;17.10;;;;;;;19.42;84.93;99320.47;5051458;28;20060;-58
2021/08/12 01:35:05;;;;;;;22.85;18.83;;;;;;;19.59;85.38;99312.88;5050536;28;20059;-60
2021/08/12 01:37:39;;;;;;;20.77;18.08;;;;;;;19.53;85.22;99332.66;5051130;28;20032;-59
2021/08/12 01:40:09;;;;;;;21.90;17.70;;;;;;;19.54;84.89;99318.06;5051183;28;20033;-58
2021/08/12 01:42:35;;;;;;;22.92;17.25;;;;;;;19.47;84.42;99330.72;5051013;28;20044;-58
2021/08/12 01:45:01;;;;;;;22.25;16.63;;;;;;;19.43;84.32;99315.88;5051176;28;20024;-57
2021/08/12 01:47:29;;;;;;;19.13;16.88;;;;;;;19.35;84.41;99301.41;5050936;28;20106;-59
2021/08/12 01:49:55;;;;;;;21.00;16.27;;;;;;;19.44;84.71;99309.41;5051215;28;20086;-57
2021/08/12 01:52:22;;;;;;;20.90;16.42;;;;;;;19.48;84.50;99306.09;5050987;28;20043;-59
2021/08/12 01:54:49;;;;;;;19.92;16.05;;;;;;;19.46;84.81;99304.59;5050734;28;20074;-60
2021/08/12 01:57:16;;;;;;;21.02;16.15;;;;;;;19.44;84.73;99288.53;5051483;28;20047;-67
2021/08/12 01:59:43;;;;;;;19.05;15.00;;;;;;;19.41;84.87;99285.34;5050910;28;20612;-59
2021/08/12 02:02:11;;;;;;;16.27;14.02;;;;;;;19.43;84.90;99273.28;5050586;28;20449;-60
2021/08/12 02:04:37;;;;;;;17.88;14.23;;;;;;;19.35;85.04;99270.69;5051082;28;20412;-60
2021/08/12 02:07:05;;;;;;;17.73;14.18;;;;;;;19.38;85.37;99264.03;5050951;28;20029;-60
2021/08/12 02:09:31;;;;;;;16.15;13.45;;;;;;;19.32;85.06;99266.50;5050783;28;20025;-59
2021/08/12 02:11:57;;;;;;;16.95;14.18;;;;;;;19.17;85.14;99244.00;5051221;28;20052;-59
2021/08/12 02:14:22;;;;;;;17.40;13.25;;;;;;;19.35;85.02;99266.09;5050556;28;20461;-60
2021/08/12 02:16:48;;;;;;;16.30;14.18;;;;;;;19.39;85.13;99254.84;5050778;28;20107;-60
2021/08/12 02:19:14;;;;;;;15.07;13.32;;;;;;;19.37;84.88;99255.03;5051216;28;20111;-58
2021/08/12 02:21:49;;;;;;;14.63;13.13;;;;;;;19.41;86.03;99253.63;5050939;28;20412;-58
2021/08/12 02:24:30;;;;;;;15.23;13.68;;;;;;;19.32;85.72;99243.94;5051021;28;20036;-59
2021/08/12 02:27:01;;;;;;;14.90;13.07;;;;;;;19.33;85.75;99249.19;5050728;28;20116;-58
2021/08/12 02:29:32;;;;;;;15.65;13.40;;;;;;;19.28;86.05;99229.91;5050655;28;20029;-61
2021/08/12 02:32:01;;;;;;;14.13;12.68;;;;;;;19.32;86.23;99238.50;5050430;28;20132;-59
2021/08/12 02:34:28;;;;;;;14.40;12.77;;;;;;;19.24;85.69;99228.63;5050748;28;20128;-59
2021/08/12 02:36:55;;;;;;;16.20;13.13;;;;;;;19.26;86.03;99236.59;5051070;28;20110;-59
2021/08/12 02:39:22;;;;;;;16.45;12.98;;;;;;;19.26;85.84;99245.53;5050886;28;20037;-59
2021/08/12 02:41:48;;;;;;;16.15;13.60;;;;;;;19.28;86.15;99254.34;5050832;28;20029;-70
2021/08/12 02:44:14;;;;;;;14.60;12.18;;;;;;;19.35;85.87;99252.53;5050746;28;20025;-60
2021/08/12 02:46:42;;;;;;;12.00;10.75;;;;;;;19.37;85.69;99244.19;5053329;28;20119;-57
2021/08/12 02:49:08;;;;;;;12.52;11.30;;;;;;;19.44;85.57;99249.69;5054643;28;20025;-61
2021/08/12 02:51:35;;;;;;;13.10;11.43;;;;;;;19.33;85.93;99256.47;5053735;28;20131;-59
2021/08/12 02:54:03;;;;;;;12.98;11.32;;;;;;;19.26;85.89;99242.84;5053976;28;20025;-61
2021/08/12 02:56:29;;;;;;;13.45;12.05;;;;;;;19.24;85.93;99247.63;5054348;28;20392;-60
2021/08/12 02:58:55;;;;;;;12.63;11.30;;;;;;;19.29;86.33;99247.03;5054691;28;20040;-61
2021/08/12 03:01:22;;;;;;;13.73;11.98;;;;;;;19.33;85.45;99232.91;5053820;28;20025;-61
2021/08/12 03:03:49;;;;;;;12.57;11.25;;;;;;;19.35;86.33;99233.53;5054445;28;20037;-60
2021/08/12 03:06:18;;;;;;;12.98;11.57;;;;;;;19.46;85.87;99242.16;5054398;28;20502;-59
2021/08/12 03:08:48;;;;;;;11.98;10.82;;;;;;;19.55;86.07;99245.59;5054385;28;20104;-58
2021/08/12 03:11:16;;;;;;;14.07;11.82;;;;;;;19.57;85.67;99233.50;5053839;28;20541;-59
2021/08/12 03:13:43;;;;;;;13.13;11.73;;;;;;;19.58;85.92;99235.19;5053718;28;20068;-59
2021/08/12 03:16:09;;;;;;;13.20;11.73;;;;;;;19.64;85.61;99231.66;5054154;28;20036;-61
2021/08/12 03:18:35;;;;;;;13.18;11.52;;;;;;;19.70;85.28;99240.06;5054157;28;20029;-60
2021/08/12 03:21:11;;;;;;;15.10;12.50;;;;;;;19.72;85.92;99244.25;5053643;28;20102;-59
2021/08/12 03:23:37;;;;;;;14.90;12.45;;;;;;;19.63;85.25;99242.72;5053793;28;20068;-60
2021/08/12 03:26:04;;;;;;;15.13;12.85;;;;;;;19.57;85.73;99257.94;5053982;28;20056;-60
2021/08/12 03:28:30;;;;;;;16.67;13.65;;;;;;;19.60;85.51;99262.13;5052810;28;20031;-60
2021/08/12 03:30:56;;;;;;;17.80;13.57;;;;;;;19.67;85.89;99270.31;5053360;28;20060;-58
2021/08/12 03:33:21;;;;;;;15.90;14.10;;;;;;;19.73;85.36;99277.69;5053693;28;20053;-61
2021/08/12 03:35:47;;;;;;;16.35;13.05;;;;;;;19.78;85.06;99269.78;5053826;28;20029;-62
2021/08/12 03:38:12;;;;;;;15.05;13.45;;;;;;;19.82;84.93;99265.63;5052344;28;20064;-59
2021/08/12 03:40:37;;;;;;;15.85;13.75;;;;;;;19.82;84.70;99259.34;5053460;28;20037;-63
2021/08/12 03:43:03;;;;;;;16.15;14.10;;;;;;;19.90;84.74;99262.75;5053517;28;20036;-60
2021/08/12 03:45:29;;;;;;;16.23;14.27;;;;;;;19.73;84.60;99234.22;5053465;28;20461;-62
2021/08/12 03:47:54;;;;;;;15.80;13.55;;;;;;;19.94;84.61;99272.22;5052936;28;20029;-61
2021/08/12 03:50:20;;;;;;;17.33;14.70;;;;;;;19.99;84.55;99268.06;5053414;28;20454;-59
2021/08/12 03:52:45;;;;;;;16.98;15.25;;;;;;;20.05;84.80;99272.72;5053302;28;20472;-60
2021/08/12 03:55:11;;;;;;;19.88;17.70;;;;;;;20.10;84.34;99272.97;5053101;28;20404;-59
2021/08/12 03:57:43;;;;;;;18.55;16.38;;;;;;;20.19;84.75;99277.19;5052529;28;20035;-60
2021/08/12 04:00:16;;;;;;;18.77;16.73;;;;;;;20.15;84.43;99270.47;5053242;28;20020;-60
2021/08/12 04:02:42;;;;;;;19.05;16.20;;;;;;;20.19;83.83;99260.88;5052816;28;20139;-60
2021/08/12 04:05:08;;;;;;;18.33;16.50;;;;;;;20.20;84.48;99257.09;5052984;28;20440;-58
2021/08/12 04:07:33;;;;;;;18.20;16.33;;;;;;;20.22;84.58;99256.91;5053069;28;20457;-60
2021/08/12 04:09:59;;;;;;;19.38;17.27;;;;;;;20.28;84.49;99258.81;5052865;28;20108;-58
2021/08/12 04:12:24;;;;;;;18.65;16.85;;;;;;;20.36;83.99;99265.97;5052359;28;20103;-61
2021/08/12 04:14:49;;;;;;;19.08;15.70;;;;;;;20.43;83.63;99257.84;5053064;28;20366;-59
2021/08/12 04:17:15;;;;;;;18.63;16.73;;;;;;;20.46;83.91;99246.56;5052721;28;20074;-59
2021/08/12 04:19:41;;;;;;;18.92;17.05;;;;;;;20.59;83.75;99248.50;5052368;28;20098;-60
2021/08/12 04:22:07;;;;;;;19.55;16.75;;;;;;;20.62;83.44;99248.94;5052587;28;20453;-60
2021/08/12 04:24:33;;;;;;;17.80;15.90;;;;;;;20.70;83.34;99252.53;5052593;28;20052;-60
2021/08/12 04:26:58;;;;;;;19.10;16.90;;;;;;;20.84;83.42;99270.56;5052725;28;20033;-60
2021/08/12 04:29:24;;;;;;;16.25;14.75;;;;;;;20.90;82.67;99264.34;5052253;28;20029;-63
2021/08/12 04:31:49;;;;;;;17.65;14.77;;;;;;;20.94;82.42;99264.75;5052950;28;20049;-61
2021/08/12 04:34:16;;;;;;;16.73;15.02;;;;;;;21.00;82.28;99266.66;5052731;28;20033;-60
2021/08/12 04:36:41;;;;;;;16.65;14.95;;;;;;;21.02;81.55;99259.13;5052093;28;20358;-60
2021/08/12 04:39:06;;;;;;;15.68;13.93;;;;;;;21.03;81.37;99260.81;5050802;28;20071;-61
2021/08/12 04:41:32;;;;;;;18.00;14.77;;;;;;;21.01;80.72;99257.44;5052405;28;20131;-60
2021/08/12 04:43:57;;;;;;;15.00;13.48;;;;;;;20.99;81.59;99264.13;5052526;28;20029;-61
2021/08/12 04:46:23;;;;;;;15.80;14.18;;;;;;;21.05;81.11;99252.41;5052374;28;20036;-61
2021/08/12 04:48:48;;;;;;;16.65;14.68;;;;;;;21.08;81.75;99247.41;5052098;28;20021;-60
2021/08/12 04:51:14;;;;;;;14.90;13.40;;;;;;;21.04;81.38;99224.38;5052167;28;20041;-59
2021/08/12 04:53:40;;;;;;;15.05;13.55;;;;;;;21.24;80.34;99242.63;5052239;28;20047;-59
2021/08/12 04:56:05;;;;;;;16.02;14.15;;;;;;;21.23;80.25;99247.22;5051777;28;20495;-60
2021/08/12 04:58:31;;;;;;;20.42;14.05;;;;;;;21.20;80.60;99254.94;5051780;28;20079;-59
2021/08/12 05:00:57;;;;;;;15.82;14.25;;;;;;;21.06;80.15;99232.31;5052082;28;20047;-60
2021/08/12 05:03:22;;;;;;;14.95;13.35;;;;;;;21.18;79.90;99229.81;5052406;28;20079;-60
2021/08/12 05:05:48;;;;;;;14.77;13.27;;;;;;;21.22;80.71;99222.94;5051857;28;20116;-61
2021/08/12 05:08:13;;;;;;;15.25;13.65;;;;;;;21.32;80.78;99208.88;5049401;28;20123;-60
2021/08/12 05:10:39;;;;;;;18.13;14.90;;;;;;;21.37;79.66;99209.94;5051852;28;20032;-61
2021/08/12 05:13:04;;;;;;;17.08;15.23;;;;;;;21.44;80.09;99203.63;5052290;28;20037;-60
2021/08/12 05:15:30;;;;;;;15.40;13.80;;;;;;;21.57;79.90;99179.13;5051658;28;20116;-60
2021/08/12 05:17:55;;;;;;;16.40;14.80;;;;;;;21.79;79.13;99176.19;5051723;28;20166;-60
2021/08/12 05:20:21;;;;;;;18.40;15.23;;;;;;;21.96;78.74;99170.28;5033660;28;20055;-59
2021/08/12 05:22:47;;;;;;;16.95;15.10;;;;;;;22.04;78.10;99161.84;5051857;28;20087;-59
2021/08/12 05:25:13;;;;;;;17.63;15.38;;;;;;;22.11;77.73;99156.38;5051247;28;20064;-60
2021/08/12 05:27:38;;;;;;;17.42;15.63;;;;;;;22.19;77.59;99148.78;5051281;28;20039;-63
2021/08/12 05:30:05;;;;;;;17.92;16.13;;;;;;;22.43;77.06;99143.63;5051095;28;20035;-62
2021/08/12 05:32:30;;;;;;;17.65;15.82;;;;;;;22.68;76.07;99123.78;5051389;28;20068;-60
2021/08/12 05:34:56;;;;;;;18.48;16.58;;;;;;;22.87;75.07;99127.41;5051680;28;20075;-61
2021/08/12 05:37:21;;;;;;;17.90;16.20;;;;;;;22.97;75.10;99126.06;5051455;28;20045;-61
2021/08/12 05:39:47;;;;;;;20.05;18.02;;;;;;;22.94;74.84;99130.91;5051285;28;20043;-59
2021/08/12 05:42:12;;;;;;;19.85;17.75;;;;;;;22.90;74.30;99120.66;5051357;28;20031;-62
2021/08/12 05:44:38;;;;;;;20.98;18.40;;;;;;;22.83;74.25;99125.34;5051043;28;20025;-62
2021/08/12 05:47:03;;;;;;;19.75;17.17;;;;;;;22.70;74.92;99110.75;5051334;28;20021;-60
2021/08/12 05:49:29;;;;;;;19.75;17.65;;;;;;;22.85;75.04;99121.34;5051326;28;20106;-61
2021/08/12 05:51:55;;;;;;;24.02;21.33;;;;;;;22.82;74.28;99112.75;5051281;28;20124;-61
2021/08/12 05:54:20;;;;;;;23.65;21.00;;;;;;;22.87;74.90;99111.03;5051307;28;20523;-59
2021/08/12 05:56:46;;;;;;;26.98;21.80;;;;;;;22.84;74.38;99102.44;5050530;28;20044;-59
2021/08/12 05:59:12;;;;;;;24.50;21.30;;;;;;;22.85;74.72;99112.31;5051018;28;20572;-59
2021/08/12 06:01:37;;;;;;;26.05;21.45;;;;;;;22.94;74.27;99121.91;5051194;28;20389;-59
2021/08/12 06:04:03;;;;;;;25.80;21.67;;;;;;;23.06;74.24;99130.22;5050906;28;20160;-59
2021/08/12 06:06:30;;;;;;;24.33;21.75;;;;;;;23.12;73.98;99123.00;5050819;28;20453;-60
2021/08/12 06:08:55;;;;;;;23.65;21.15;;;;;;;23.22;73.26;99105.03;5051112;28;20108;-61
2021/08/12 06:11:20;;;;;;;23.88;21.38;;;;;;;23.41;72.73;99107.03;5051182;28;20112;-61
2021/08/12 06:13:46;;;;;;;24.05;21.55;;;;;;;23.48;72.29;99111.34;5050650;28;20068;-59
2021/08/12 06:16:11;;;;;;;23.50;21.10;;;;;;;23.51;72.50;99120.97;5050684;28;20066;-62
2021/08/12 06:18:38;;;;;;;23.15;20.85;;;;;;;23.56;72.45;99134.78;5049470;28;20120;-59
2021/08/12 06:21:03;;;;;;;22.80;19.88;;;;;;;23.68;71.85;99148.53;5054249;28;20036;-61
2021/08/12 06:23:29;;;;;;;21.95;19.75;;;;;;;23.78;70.85;99176.19;5055134;28;20415;-61
2021/08/12 06:25:55;;;;;;;21.55;19.33;;;;;;;23.81;70.33;99180.34;5054638;28;20057;-59
2021/08/12 06:28:20;;;;;;;21.92;19.63;;;;;;;23.73;70.38;99194.31;5055251;28;20029;-61
2021/08/12 06:30:46;;;;;;;20.80;18.60;;;;;;;23.69;70.84;99193.13;5054539;28;20076;-61
2021/08/12 06:33:11;;;;;;;23.50;19.40;;;;;;;23.64;70.56;99186.44;5054376;28;20123;-60
2021/08/12 06:35:37;;;;;;;23.88;19.58;;;;;;;23.60;70.60;99182.47;5054555;28;20029;-59
2021/08/12 06:38:05;;;;;;;22.20;19.83;;;;;;;23.53;71.81;99184.44;5020659;28;20478;-61
2021/08/12 06:40:31;;;;;;;21.17;18.92;;;;;;;23.56;71.36;99199.53;5034290;28;20453;-61
2021/08/12 06:42:56;;;;;;;21.92;18.58;;;;;;;23.47;71.00;99208.00;5015174;28;20146;-62
2021/08/12 06:45:24;;;;;;;20.30;18.20;;;;;;;23.19;71.52;99192.06;5013955;28;20106;-61
2021/08/12 06:47:51;;;;;;;20.05;17.92;;;;;;;23.22;72.21;99211.53;5016776;28;20049;-61
2021/08/12 06:50:18;;;;;;;20.38;18.17;;;;;;;23.18;72.79;99206.78;5014644;28;20508;-61
2021/08/12 06:52:44;;;;;;;20.77;18.50;;;;;;;23.23;71.91;99202.28;5014912;28;20042;-60
2021/08/12 06:55:09;;;;;;;24.92;18.15;;;;;;;23.38;72.07;99203.91;5014424;28;20041;-60
2021/08/12 06:57:35;;;;;;;21.88;19.05;;;;;;;23.45;70.86;99188.28;5014813;28;20058;-62
2021/08/12 07:00:01;;;;;;;23.05;18.48;;;;;;;23.63;70.15;99198.44;5014997;28;20018;-61
2021/08/12 07:02:26;;;;;;;20.77;18.63;;;;;;;23.64;70.34;99196.50;5014615;28;20042;-61
2021/08/12 07:04:52;;;;;;;23.30;20.05;;;;;;;23.53;70.35;99183.59;5014199;28;20033;-60
2021/08/12 07:07:17;;;;;;;21.60;19.27;;;;;;;23.55;70.79;99198.69;5014591;28;20088;-60
2021/08/12 07:09:43;;;;;;;22.65;20.25;;;;;;;23.48;71.05;99192.47;5014211;28;20113;-62
2021/08/12 07:12:09;;;;;;;22.98;20.13;;;;;;;23.40;71.49;99200.97;5013586;28;20095;-60
2021/08/12 07:14:35;;;;;;;26.50;21.85;;;;;;;23.24;71.44;99178.56;5013208;28;20414;-61
2021/08/12 07:17:00;;;;;;;29.30;21.90;;;;;;;23.33;72.03;99199.09;5014252;28;20026;-60
2021/08/12 07:19:26;;;;;;;28.92;21.67;;;;;;;23.24;71.38;99203.16;5013568;28;20038;-61
2021/08/12 07:21:52;;;;;;;26.65;22.45;;;;;;;23.18;72.16;99204.03;5013709;28;20030;-61
2021/08/12 07:24:18;;;;;;;25.60;21.48;;;;;;;23.12;72.80;99207.63;5013270;28;20117;-57
2021/08/12 07:26:47;;;;;;;25.88;22.00;;;;;;;23.08;72.76;99210.00;5013611;28;20028;-61
2021/08/12 07:29:15;;;;;;;25.85;21.83;;;;;;;23.05;72.81;99205.81;5013715;28;20083;-61
2021/08/12 07:31:41;;;;;;;31.10;23.67;;;;;;;22.98;73.09;99202.28;5012422;28;20054;-62
2021/08/12 07:34:08;;;;;;;30.10;24.02;;;;;;;22.91;73.14;99204.25;5013479;28;20053;-61
2021/08/12 07:36:35;;;;;;;30.55;24.42;;;;;;;22.78;73.05;99189.59;5013448;28;20030;-60
2021/08/12 07:39:03;;;;;;;30.83;23.75;;;;;;;22.84;73.25;99197.97;5013484;28;20076;-59
2021/08/12 07:41:28;;;;;;;29.27;23.52;;;;;;;22.77;72.38;99174.28;5013160;28;20046;-61
2021/08/12 07:43:54;;;;;;;28.42;23.92;;;;;;;22.82;72.55;99172.78;5013521;28;20149;-60
2021/08/12 07:46:19;;;;;;;31.95;24.88;;;;;;;22.85;72.63;99164.16;5013417;28;20466;-60
2021/08/12 07:48:45;;;;;;;33.03;25.58;;;;;;;22.94;72.80;99160.13;5013197;28;20026;-60
2021/08/12 07:51:10;;;;;;;31.73;25.55;;;;;;;22.94;72.92;99168.31;5013311;28;20022;-61
2021/08/12 07:53:36;;;;;;;35.08;28.60;;;;;;;22.97;72.08;99188.84;5021749;28;20056;-61
2021/08/12 07:56:02;;;;;;;35.30;28.45;;;;;;;22.85;72.76;99183.25;5020875;28;20041;-61
2021/08/12 07:58:28;;;;;;;39.00;30.30;;;;;;;22.80;73.30;99182.03;5013191;28;20030;-60
2021/08/12 08:00:54;;;;;;;38.78;29.58;;;;;;;22.78;73.33;99195.06;5012963;28;20370;-60
2021/08/12 08:03:19;;;;;;;38.60;28.55;;;;;;;22.69;73.29;99177.28;5022244;28;20084;-61
2021/08/12 08:05:45;;;;;;;44.60;31.50;;;;;;;22.79;72.85;99193.19;5032918;28;20041;-59
2021/08/12 08:08:11;;;;;;;45.28;30.52;;;;;;;22.78;72.48;99195.06;5021298;28;20478;-59
2021/08/12 08:10:36;;;;;;;44.45;30.65;;;;;;;22.77;73.21;99182.47;5025406;28;20466;-61
2021/08/12 08:13:03;;;;;;;42.63;32.35;;;;;;;22.73;72.88;99186.72;5032252;28;20124;-55
2021/08/12 08:15:28;;;;;;;38.92;30.65;;;;;;;22.69;72.74;99190.94;5031958;28;20100;-58
2021/08/12 08:17:54;;;;;;;40.75;31.92;;;;;;;22.73;73.16;99194.91;5022209;28;20026;-60
2021/08/12 08:20:19;;;;;;;43.78;30.25;;;;;;;22.77;73.20;99198.84;5022702;28;20057;-59
2021/08/12 08:22:45;;;;;;;43.05;32.38;;;;;;;22.80;73.23;99208.50;5032317;28;20029;-60
2021/08/12 08:25:11;;;;;;;43.20;31.13;;;;;;;22.80;73.55;99209.31;5032247;28;20033;-60
2021/08/12 08:27:37;;;;;;;41.30;31.20;;;;;;;22.90;73.04;99210.72;5032125;28;20034;-60
2021/08/12 08:30:03;;;;;;;48.38;31.40;;;;;;;22.93;72.54;99213.88;5031776;28;20358;-57
2021/08/12 08:32:29;;;;;;;40.38;30.60;;;;;;;22.99;72.51;99209.44;5031793;28;20057;-58
2021/08/12 08:34:55;;;;;;;39.25;30.98;;;;;;;23.11;72.16;99203.25;5031783;28;20497;-60
2021/08/12 08:37:21;;;;;;;40.05;29.75;;;;;;;23.26;71.21;99203.78;5031556;28;20025;-61
2021/08/12 08:39:46;;;;;;;43.03;30.83;;;;;;;23.51;70.63;99186.56;5031848;28;20083;-59
2021/08/12 08:42:12;;;;;;;42.05;30.13;;;;;;;23.77;69.86;99190.06;5031727;28;20457;-59
2021/08/12 08:44:40;;;;;;;39.38;28.52;;;;;;;24.03;68.48;99193.59;5031898;28;20036;-64
2021/08/12 08:47:09;;;;;;;37.97;30.02;;;;;;;24.37;68.56;99196.78;5031249;28;20137;-57
2021/08/12 08:49:40;;;;;;;39.35;29.45;;;;;;;24.57;67.34;99193.78;5031152;28;20173;-59
2021/08/12 08:52:10;;;;;;;35.70;28.27;;;;;;;24.78;67.29;99210.78;5031308;28;20033;-59
2021/08/12 08:54:40;;;;;;;35.90;27.35;;;;;;;25.02;66.80;99216.34;5031877;28;20171;-60
2021/08/12 08:57:07;;;;;;;38.47;29.17;;;;;;;25.15;65.10;99221.59;5018547;28;20033;-63
2021/08/12 08:59:34;;;;;;;37.95;29.08;;;;;;;25.23;63.88;99215.78;5011364;28;20272;-57
2021/08/12 09:02:04;;;;;;;33.97;27.33;;;;;;;25.38;64.37;99225.44;5011930;28;20026;-62
2021/08/12 09:04:31;;;;;;;37.70;27.85;;;;;;;25.43;63.84;99222.00;5011620;28;20505;-61
2021/08/12 09:06:57;;;;;;;37.67;28.83;;;;;;;25.48;63.39;99206.56;5011231;28;20030;-60
2021/08/12 09:09:23;;;;;;;36.47;29.27;;;;;;;25.44;63.61;99220.91;5011297;28;20037;-61
2021/08/12 09:11:49;;;;;;;34.13;28.88;;;;;;;25.26;63.65;99213.66;5019356;28;20044;-60
2021/08/12 09:14:41;;;;;;;36.28;29.60;;;;;;;25.32;65.52;99202.59;5029783;28;20029;-57
2021/08/12 09:17:19;;;;;;;32.38;27.58;;;;;;;25.19;65.22;99216.47;5030718;28;20407;-60
2021/08/12 09:20:06;;;;;;;36.10;29.25;;;;;;;25.08;65.74;99205.28;5030467;28;20393;-61
2021/08/12 09:23:01;;;;;;;37.10;29.48;;;;;;;24.96;65.74;99209.88;5029512;28;20044;-60
2021/08/12 09:25:48;;;;;;;37.20;28.38;;;;;;;24.87;65.45;99197.59;5030678;28;20431;-57
2021/08/12 09:28:29;;;;;;;38.00;31.15;;;;;;;24.75;65.38;99201.13;5030373;28;20108;-57
2021/08/12 09:30:57;;;;;;;39.78;30.40;;;;;;;24.66;64.78;99197.03;5030040;28;20492;-60
2021/08/12 09:33:22;;;;;;;36.67;30.98;;;;;;;24.61;65.10;99199.63;5030399;28;20056;-59
2021/08/12 09:35:48;;;;;;;34.75;28.75;;;;;;;24.62;64.74;99201.31;5030349;28;20021;-56
2021/08/12 09:38:14;;;;;;;37.30;29.58;;;;;;;24.51;64.69;99206.47;5030922;28;20429;-58
2021/08/12 09:40:43;;;;;;;34.58;28.48;;;;;;;24.42;65.07;99215.22;5030926;28;20033;-58
2021/08/12 09:43:10;;;;;;;34.97;29.00;;;;;;;24.36;65.83;99208.78;5030645;28;20059;-58
2021/08/12 09:45:39;;;;;;;39.25;29.83;;;;;;;24.41;66.99;99208.94;5030799;28;20432;-59
2021/08/12 09:48:19;;;;;;;38.05;27.40;;;;;;;24.41;66.64;99181.56;5030483;28;20041;-61
2021/08/12 09:50:57;;;;;;;30.85;26.65;;;;;;;24.46;67.24;99200.88;5029612;28;20037;-56
2021/08/12 09:53:23;;;;;;;36.85;26.95;;;;;;;24.48;66.00;99195.19;5030939;28;20040;-62
2021/08/12 09:55:50;;;;;;;41.47;28.60;;;;;;;24.72;65.14;99201.56;5029207;28;20056;-56
2021/08/12 09:58:16;;;;;;;35.30;27.45;;;;;;;24.90;64.61;99213.56;5030623;28;20095;-60
2021/08/12 10:00:45;;;;;;;32.67;27.13;;;;;;;24.92;64.71;99216.91;5030553;28;20479;-59
2021/08/12 10:03:32;;;;;;;37.33;27.80;;;;;;;24.92;65.27;99220.47;5030428;28;20372;-57
2021/08/12 10:06:01;;;;;;;34.17;28.13;;;;;;;24.58;65.90;99224.69;5030382;28;20065;-59
2021/08/12 10:08:34;;;;;;;37.20;28.08;;;;;;;24.41;66.79;99224.50;5030579;28;20061;-59
2021/08/12 10:11:21;;;;;;;37.92;29.65;;;;;;;24.26;67.50;99224.91;5030472;28;20061;-60
2021/08/12 10:13:52;;;;;;;35.95;28.45;;;;;;;24.09;67.04;99225.50;5030245;28;20041;-57
2021/08/12 10:16:18;;;;;;;36.55;29.30;;;;;;;23.97;67.62;99227.31;5030216;28;20091;-61
2021/08/12 10:18:45;;;;;;;37.83;29.25;;;;;;;24.03;67.13;99219.06;5030642;28;20033;-62
2021/08/12 10:21:19;;;;;;;35.33;29.83;;;;;;;24.08;66.84;99219.22;5030411;28;20045;-68
2021/08/12 10:23:48;;;;;;;33.85;29.63;;;;;;;24.15;67.13;99213.66;5030607;28;20163;-62
2021/08/12 10:26:14;;;;;;;38.38;28.38;;;;;;;24.12;66.93;99208.66;5030430;28;20109;-60
2021/08/12 10:28:43;;;;;;;36.60;30.05;;;;;;;24.16;66.82;99219.97;5030562;28;20044;-61
2021/08/12 10:31:12;;;;;;;38.72;29.98;;;;;;;24.13;66.99;99221.28;5029282;28;20054;-61
2021/08/12 10:33:39;;;;;;;38.28;31.10;;;;;;;24.06;66.79;99210.41;5016515;28;20069;-61
2021/08/12 10:36:05;;;;;;;38.85;29.77;;;;;;;23.89;67.42;99190.16;5027207;28;20025;-58
2021/08/12 10:38:31;;;;;;;40.10;31.58;;;;;;;23.98;68.13;99212.56;5026648;28;20030;-61
2021/08/12 10:40:57;;;;;;;38.22;29.95;;;;;;;23.99;69.11;99214.25;5010174;28;20041;-60
2021/08/12 10:43:28;;;;;;;41.30;30.33;;;;;;;24.03;68.37;99219.06;5010451;28;20482;-61
2021/08/12 10:45:59;;;;;;;37.53;29.55;;;;;;;24.09;69.13;99225.50;5010324;28;20454;-60
2021/08/12 10:48:26;;;;;;;39.00;30.88;;;;;;;24.02;68.88;99222.00;5010828;28;20108;-60
2021/08/12 10:51:12;;;;;;;41.95;28.75;;;;;;;24.19;67.78;99220.34;5015395;28;20034;-61
2021/08/12 10:54:05;;;;;;;37.10;28.65;;;;;;;24.28;68.06;99218.16;5030041;28;20029;-56
2021/08/12 10:56:39;;;;;;;35.42;28.08;;;;;;;24.40;67.25;99226.41;5029597;28;20033;-60
2021/08/12 10:59:05;;;;;;;39.95;28.35;;;;;;;24.43;67.30;99228.69;5030388;28;20073;-61
2021/08/12 11:01:39;;;;;;;38.25;29.02;;;;;;;24.66;67.04;99236.16;5029686;28;20033;-59
2021/08/12 11:04:05;;;;;;;37.38;28.38;;;;;;;24.60;66.72;99230.81;5029793;28;20044;-61
2021/08/12 11:06:38;;;;;;;38.78;28.13;;;;;;;24.79;66.46;99234.34;5030568;28;20382;-57
2021/08/12 11:09:05;;;;;;;38.58;29.05;;;;;;;24.75;66.84;99233.16;5033447;28;20116;-60
2021/08/12 11:11:31;;;;;;;37.58;29.67;;;;;;;24.89;66.15;99229.13;5033421;28;20029;-61
2021/08/12 11:13:56;;;;;;;38.70;29.55;;;;;;;25.03;65.86;99240.72;5028821;28;20034;-61
2021/08/12 11:16:41;;;;;;;39.08;28.58;;;;;;;25.19;65.09;99247.44;5014314;28;20498;-61
2021/08/12 11:19:33;;;;;;;38.08;29.55;;;;;;;25.23;65.97;99253.28;5030901;28;20486;-60